Time;durP1;ratioP1;P1;durP2;ratioP2;P2;SDS_P1;SDS_P2;PMS_P1;PMS_P2;Temp;Humidity;BMP_temperature;BMP_pressure;BME280_temperature;BME280_humidity;BME280_pressure;Samples;Min_cycle;Max_cycle;Signal;HPM_P1;HPM_P2
2023/10/13 00:00:41;;;;;;;4.68;0.85;;;16.40;90.20;;;;;;6198693;28;20057;-77
2023/10/13 00:03:42;;;;;;;2.67;0.80;;;16.40;90.20;;;;;;6150062;29;20055;-76
2023/10/13 00:06:45;;;;;;;3.60;0.80;;;16.40;90.20;;;;;;6197381;28;20104;-77
2023/10/13 00:09:46;;;;;;;2.25;0.60;;;16.30;90.20;;;;;;6174205;28;20054;-77
2023/10/13 00:12:52;;;;;;;1.60;0.60;;;16.30;90.20;;;;;;6188401;28;20839;-77
2023/10/13 00:15:59;;;;;;;1.55;0.60;;;16.30;90.20;;;;;;6183567;28;20410;-77
2023/10/13 00:19:01;;;;;;;1.95;0.65;;;16.30;90.20;;;;;;6149484;28;20141;-76
2023/10/13 00:22:08;;;;;;;2.28;0.50;;;16.30;90.20;;;;;;6196327;28;20537;-77
2023/10/13 00:25:19;;;;;;;1.20;0.50;;;16.20;90.20;;;;;;6149450;28;20130;-77
2023/10/13 00:28:24;;;;;;;2.45;0.50;;;16.20;90.20;;;;;;6163062;28;20506;-77
2023/10/13 00:31:32;;;;;;;2.55;0.55;;;16.20;90.20;;;;;;6173225;28;20439;-76
2023/10/13 00:34:37;;;;;;;3.30;0.50;;;16.20;90.20;;;;;;6149414;28;20418;-77
2023/10/13 00:37:46;;;;;;;2.47;0.40;;;16.20;90.20;;;;;;6197132;28;20050;-77
2023/10/13 00:40:54;;;;;;;1.85;0.50;;;16.20;90.20;;;;;;6173052;28;20070;-77
2023/10/13 00:44:06;;;;;;;2.05;0.60;;;16.20;90.20;;;;;;6180856;28;20050;-77
2023/10/13 00:47:09;;;;;;;1.73;0.90;;;16.20;90.20;;;;;;6196487;28;20580;-77
2023/10/13 00:50:15;;;;;;;3.00;0.60;;;16.10;90.20;;;;;;6172709;28;20054;-77
2023/10/13 00:53:17;;;;;;;1.00;0.50;;;16.20;90.20;;;;;;6196679;28;20061;-77
2023/10/13 00:56:26;;;;;;;1.13;0.40;;;16.20;90.30;;;;;;6172634;28;20077;-78
2023/10/13 00:59:28;;;;;;;2.45;0.40;;;16.20;90.20;;;;;;6144013;28;20058;-78
2023/10/13 01:05:39;;;;;;;0.77;0.40;;;16.30;90.30;;;;;;6172765;28;20065;-78
2023/10/13 01:08:44;;;;;;;1.50;0.50;;;16.40;90.30;;;;;;6196070;28;20065;-78
2023/10/13 01:11:47;;;;;;;2.00;0.93;;;16.40;90.30;;;;;;6171978;28;20050;-79
2023/10/13 01:14:49;;;;;;;0.88;0.40;;;16.40;90.30;;;;;;6192241;28;20057;-78
2023/10/13 01:17:50;;;;;;;0.75;0.40;;;16.50;90.30;;;;;;6172329;28;20065;-78
2023/10/13 01:20:52;;;;;;;0.88;0.40;;;16.50;90.30;;;;;;6195659;28;20057;-78
2023/10/13 01:23:54;;;;;;;3.38;0.50;;;16.60;90.30;;;;;;6172252;28;20509;-78
2023/10/13 01:26:55;;;;;;;2.15;0.50;;;16.60;90.30;;;;;;6195217;28;20413;-78
2023/10/13 01:30:09;;;;;;;6.00;0.70;;;16.70;90.40;;;;;;6171661;28;20392;-78
2023/10/13 01:33:11;;;;;;;3.40;0.80;;;16.70;90.40;;;;;;6147113;29;20575;-78
2023/10/13 01:36:12;;;;;;;3.97;1.10;;;16.80;90.40;;;;;;6209724;28;20054;-78
2023/10/13 01:39:16;;;;;;;6.90;1.40;;;16.80;90.40;;;;;;6178880;28;20057;-79
2023/10/13 01:42:21;;;;;;;4.97;1.50;;;16.80;90.40;;;;;;6195146;28;20065;-79
2023/10/13 01:45:28;;;;;;;9.63;1.60;;;16.70;90.40;;;;;;6141854;28;20051;-79
2023/10/13 01:48:38;;;;;;;6.47;2.00;;;16.80;90.40;;;;;;6147732;28;20059;-79
2023/10/13 01:51:40;;;;;;;5.80;2.42;;;16.70;90.20;;;;;;6147672;28;20135;-79
2023/10/13 01:54:44;;;;;;;12.32;2.85;;;16.60;90.00;;;;;;6194323;28;20065;-78
2023/10/13 01:57:47;;;;;;;6.35;2.17;;;16.50;88.90;;;;;;6169778;28;20049;-78
2023/10/13 02:00:49;;;;;;;14.07;2.75;;;16.50;88.90;;;;;;6195192;28;20490;-78
2023/10/13 02:04:01;;;;;;;12.48;2.58;;;16.40;88.50;;;;;;6147374;28;20157;-78
2023/10/13 02:07:02;;;;;;;8.60;2.85;;;16.30;88.20;;;;;;6147458;28;20133;-78
2023/10/13 02:10:12;;;;;;;10.65;3.05;;;16.20;88.30;;;;;;6193836;28;20392;-79
2023/10/13 02:13:17;;;;;;;7.30;3.00;;;16.10;88.00;;;;;;6154896;28;20065;-79
2023/10/13 02:16:21;;;;;;;12.90;3.72;;;16.10;87.90;;;;;;6169286;28;20054;-79
2023/10/13 02:19:27;;;;;;;10.32;3.97;;;16.10;88.50;;;;;;6194552;28;20100;-79
2023/10/13 02:22:31;;;;;;;15.35;4.32;;;16.00;88.70;;;;;;6177454;28;20052;-79
2023/10/13 02:25:42;;;;;;;11.65;3.75;;;16.00;89.00;;;;;;6194453;28;20064;-79
2023/10/13 02:28:49;;;;;;;11.75;4.30;;;16.00;89.30;;;;;;6167177;28;20061;-79
2023/10/13 02:31:55;;;;;;;13.20;3.38;;;16.00;90.00;;;;;;6147088;28;20055;-78
2023/10/13 02:35:05;;;;;;;10.85;3.28;;;16.00;90.00;;;;;;6194946;28;20054;-79
2023/10/13 02:38:11;;;;;;;12.07;3.28;;;16.00;90.10;;;;;;6147633;28;20519;-78
2023/10/13 02:41:18;;;;;;;14.07;4.10;;;16.00;90.20;;;;;;6146996;28;20070;-78
2023/10/13 02:44:27;;;;;;;16.58;3.38;;;16.10;90.10;;;;;;6172624;28;20501;-79
2023/10/13 02:47:31;;;;;;;16.63;4.25;;;16.00;90.10;;;;;;6146665;28;20051;-78
2023/10/13 02:50:33;;;;;;;13.77;3.95;;;16.10;90.10;;;;;;6194271;28;20061;-79
2023/10/13 02:53:35;;;;;;;15.55;4.05;;;16.10;90.10;;;;;;6170619;28;20074;-78
2023/10/13 02:56:36;;;;;;;16.02;4.40;;;16.10;90.10;;;;;;6193948;28;20050;-78
2023/10/13 02:59:40;;;;;;;13.52;3.90;;;16.10;90.40;;;;;;6167585;28;20047;-78
2023/10/13 03:02:53;;;;;;;18.55;4.43;;;16.10;90.20;;;;;;6193754;28;20057;-78
2023/10/13 03:05:55;;;;;;;12.85;4.97;;;16.10;90.20;;;;;;6146841;28;20510;-78
2023/10/13 03:08:57;;;;;;;13.90;4.30;;;16.10;90.20;;;;;;6196730;28;20533;-79
2023/10/13 03:11:58;;;;;;;16.10;4.25;;;16.10;90.20;;;;;;6175714;28;20057;-78
2023/10/13 03:15:12;;;;;;;15.88;4.65;;;16.20;90.30;;;;;;6180981;28;20070;-79
2023/10/13 03:18:18;;;;;;;18.88;4.75;;;16.20;90.20;;;;;;6150817;28;20051;-79
2023/10/13 03:21:30;;;;;;;16.38;4.78;;;16.30;90.30;;;;;;6165511;28;20134;-79
2023/10/13 03:24:35;;;;;;;21.40;5.50;;;16.40;90.30;;;;;;6174749;28;20051;-78
2023/10/13 03:30:54;;;;;;;19.13;5.15;;;16.50;90.30;;;;;;6174406;28;20487;-78
2023/10/13 03:34:00;;;;;;;13.45;4.68;;;16.60;90.30;;;;;;6197007;28;20055;-79
2023/10/13 03:37:10;;;;;;;19.75;5.50;;;16.60;90.40;;;;;;6181378;28;20058;-78
2023/10/13 03:43:23;;;;;;;17.10;5.63;;;16.80;90.40;;;;;;6190079;22;20410;-89
2023/10/13 03:46:26;;;;;;;16.88;5.15;;;16.80;90.40;;;;;;6199138;28;20066;-85
2023/10/13 03:49:29;;;;;;;15.15;5.20;;;16.80;90.40;;;;;;6223737;28;20085;-85
2023/10/13 03:52:35;;;;;;;19.92;6.03;;;16.90;90.40;;;;;;6198183;28;20058;-84
2023/10/13 03:55:38;;;;;;;15.15;4.95;;;16.90;90.40;;;;;;6173979;28;20089;-87
2023/10/13 03:58:45;;;;;;;18.05;5.35;;;16.90;90.40;;;;;;6207528;28;20133;-86
2023/10/13 04:04:55;;;;;;;22.73;6.18;;;17.00;90.40;;;;;;6221994;28;20054;-87
2023/10/13 04:17:58;;;;;;;13.20;4.57;;;17.20;89.20;;;;;;6198779;28;20487;-86
2023/10/13 04:21:18;;;;;;;10.85;4.82;;;17.30;88.30;;;;;;6220267;28;20239;-84
2023/10/13 04:24:39;;;;;;;13.80;4.70;;;17.20;88.50;;;;;;6173250;28;20058;-85
2023/10/13 04:27:53;;;;;;;18.00;5.47;;;17.20;87.90;;;;;;6187738;28;20417;-87
2023/10/13 04:34:02;;;;;;;16.15;4.78;;;17.30;87.50;;;;;;6198763;28;20514;-89
2023/10/13 04:40:24;;;;;;;14.77;4.25;;;17.40;86.30;;;;;;6174438;28;20145;-87
2023/10/13 04:43:33;;;;;;;14.20;4.57;;;17.40;86.20;;;;;;6207427;28;20085;-89
2023/10/13 04:49:52;;;;;;;20.80;4.93;;;17.50;83.20;;;;;;6199027;28;20080;-87
2023/10/13 04:53:13;;;;;;;15.00;5.03;;;17.50;83.30;;;;;;6221693;28;20054;-86
2023/10/13 04:59:36;;;;;;;16.42;4.32;;;17.60;81.60;;;;;;6199174;28;20050;-88
2023/10/13 05:49:49;;;;;;;17.75;4.40;;;18.00;78.80;;;;;;6167619;28;20065;-85
2023/10/13 06:29:22;;;;;;;24.67;5.00;;;18.40;78.20;;;;;;6217786;28;20046;-82
2023/10/13 06:32:27;;;;;;;20.02;5.28;;;18.50;78.20;;;;;;6193498;28;20097;-82
2023/10/13 06:35:31;;;;;;;17.17;4.68;;;18.50;78.20;;;;;;6217207;28;20057;-82
2023/10/13 06:38:36;;;;;;;24.30;4.63;;;18.50;77.80;;;;;;6193409;28;20120;-82
2023/10/13 06:41:40;;;;;;;15.43;4.32;;;18.60;78.20;;;;;;6217141;28;20105;-84
2023/10/13 06:44:45;;;;;;;21.67;4.68;;;18.60;77.60;;;;;;6192735;28;20058;-82
2023/10/13 06:47:46;;;;;;;17.27;3.72;;;18.70;77.40;;;;;;6222724;28;20089;-86
2023/10/13 06:50:48;;;;;;;20.40;4.43;;;18.70;76.90;;;;;;6198848;28;20050;-84
2023/10/13 06:53:56;;;;;;;16.92;4.40;;;18.80;76.40;;;;;;6222110;28;20529;-85
2023/10/13 06:56:58;;;;;;;18.58;4.60;;;18.80;78.30;;;;;;6174558;28;20404;-87
2023/10/13 07:00:07;;;;;;;24.00;5.43;;;18.80;78.30;;;;;;6219796;28;20367;-82
2023/10/13 07:03:17;;;;;;;26.00;6.15;;;18.70;79.90;;;;;;6176449;28;20134;-83
2023/10/13 07:06:19;;;;;;;21.27;4.80;;;18.60;82.10;;;;;;6192947;28;20414;-86
2023/10/13 07:12:35;;;;;;;23.60;4.90;;;18.50;85.30;;;;;;6200794;28;20057;-84
2023/10/13 07:15:44;;;;;;;16.42;5.15;;;18.40;85.40;;;;;;6225042;28;20062;-84
2023/10/13 07:18:49;;;;;;;23.38;4.95;;;18.40;86.00;;;;;;6191679;28;20055;-84
2023/10/13 07:21:58;;;;;;;21.92;5.25;;;18.40;86.00;;;;;;6240077;28;20058;-84
2023/10/13 07:25:05;;;;;;;18.77;5.67;;;18.50;84.00;;;;;;6173775;28;20498;-85
2023/10/13 07:28:10;;;;;;;21.27;4.90;;;18.50;81.40;;;;;;6199176;28;20049;-83
2023/10/13 07:31:12;;;;;;;22.83;4.82;;;18.60;82.00;;;;;;6224503;28;20057;-83
2023/10/13 07:34:32;;;;;;;21.70;4.60;;;18.70;79.20;;;;;;6198618;28;20213;-83
2023/10/13 07:37:34;;;;;;;24.17;5.20;;;18.80;78.40;;;;;;6179881;28;20066;-87
2023/10/13 07:43:39;;;;;;;21.23;4.90;;;18.80;76.80;;;;;;6203758;28;20469;-85
2023/10/13 07:46:42;;;;;;;17.85;4.32;;;18.80;76.80;;;;;;6196591;28;20443;-84
2023/10/13 07:49:44;;;;;;;21.17;4.78;;;18.90;76.80;;;;;;6219587;28;20109;-83
2023/10/13 07:53:00;;;;;;;20.05;5.15;;;18.90;75.00;;;;;;6197822;28;20359;-84
2023/10/13 07:56:04;;;;;;;20.15;4.65;;;18.80;78.30;;;;;;6223843;28;20058;-86
2023/10/13 07:59:08;;;;;;;21.70;4.72;;;18.80;81.50;;;;;;6210062;28;20425;-85
2023/10/13 08:02:15;;;;;;;15.40;5.05;;;18.70;80.50;;;;;;6197495;28;20069;-83
2023/10/13 08:05:39;;;;;;;23.73;5.10;;;18.70;81.70;;;;;;6175013;28;20054;-84
2023/10/13 08:08:43;;;;;;;21.45;4.70;;;18.70;81.40;;;;;;6189974;28;20050;-84
2023/10/13 08:11:45;;;;;;;18.38;4.72;;;18.70;77.90;;;;;;6237748;28;20045;-84
2023/10/13 08:14:46;;;;;;;18.30;4.40;;;18.70;75.10;;;;;;6197066;28;20054;-85
2023/10/13 08:17:51;;;;;;;17.98;5.00;;;18.60;72.50;;;;;;6223482;28;20072;-84
2023/10/13 08:20:53;;;;;;;14.95;4.85;;;18.50;74.60;;;;;;6174399;28;20502;-86
2023/10/13 08:27:02;;;;;;;20.67;6.00;;;18.50;70.30;;;;;;6198173;28;20061;-83
2023/10/13 08:33:27;;;;;;;16.23;4.75;;;18.50;69.90;;;;;;6221599;28;20089;-83
2023/10/13 08:36:30;;;;;;;11.50;4.65;;;18.50;73.20;;;;;;6197767;28;20054;-83
2023/10/13 08:46:06;;;;;;;13.02;4.28;;;18.40;77.50;;;;;;6198542;28;20092;-82
2023/10/13 08:49:14;;;;;;;12.50;4.70;;;18.30;75.30;;;;;;6222528;28;20045;-82
2023/10/13 08:55:48;;;;;;;13.70;4.80;;;18.20;77.10;;;;;;6173637;28;20481;-82
2023/10/13 08:59:09;;;;;;;17.38;4.97;;;18.10;76.70;;;;;;6222740;28;20069;-86
2023/10/13 09:02:21;;;;;;;20.02;5.40;;;18.10;77.90;;;;;;6173997;28;20058;-84
2023/10/13 09:09:07;;;;;;;15.73;5.38;;;17.90;81.50;;;;;;6178158;28;20533;-86
2023/10/13 09:12:09;;;;;;;19.70;5.40;;;17.80;82.90;;;;;;6197073;28;20054;-85
2023/10/13 09:18:15;;;;;;;17.83;5.75;;;17.70;84.60;;;;;;6199389;28;20065;-86
2023/10/13 09:24:38;;;;;;;12.82;5.07;;;17.80;85.20;;;;;;6198307;28;20054;-85
2023/10/13 09:27:39;;;;;;;18.92;5.10;;;17.80;84.60;;;;;;6213253;28;20053;-85
2023/10/13 09:30:41;;;;;;;17.05;5.20;;;17.90;84.90;;;;;;6195412;28;20058;-83
2023/10/13 09:33:50;;;;;;;15.27;4.63;;;17.90;85.00;;;;;;6188344;28;20061;-84
2023/10/13 09:36:55;;;;;;;13.38;5.32;;;17.90;85.70;;;;;;6236493;28;20053;-84
2023/10/13 09:40:24;;;;;;;14.07;5.00;;;17.80;87.50;;;;;;6195409;28;20074;-85
2023/10/13 09:43:19;;;;;;;16.52;5.35;;;17.80;88.00;;;;;;6182454;28;20085;-84
2023/10/13 09:46:23;;;;;;;16.63;4.45;;;17.80;88.20;;;;;;6196526;28;20058;-85
2023/10/13 09:49:44;;;;;;;12.82;4.38;;;17.90;89.20;;;;;;6223553;28;20046;-88
2023/10/13 09:52:47;;;;;;;11.73;4.63;;;17.80;89.50;;;;;;6175325;28;20051;-86
2023/10/13 09:55:49;;;;;;;10.43;4.07;;;17.80;89.60;;;;;;6218775;28;20413;-86
2023/10/13 09:58:51;;;;;;;10.48;3.72;;;17.80;90.00;;;;;;6206926;28;20057;-84
2023/10/13 10:01:59;;;;;;;10.30;3.58;;;17.90;90.00;;;;;;6195366;28;20054;-85
2023/10/13 10:08:21;;;;;;;10.45;3.25;;;17.90;90.00;;;;;;6220890;28;20144;-86
2023/10/13 10:11:23;;;;;;;7.75;3.22;;;18.00;89.90;;;;;;6196864;28;20070;-86
2023/10/13 10:14:25;;;;;;;8.82;3.20;;;18.00;90.00;;;;;;6220570;28;20061;-88
2023/10/13 10:17:29;;;;;;;10.93;3.30;;;18.00;89.80;;;;;;6196930;28;20391;-84
2023/10/13 10:20:45;;;;;;;8.82;3.42;;;18.10;89.60;;;;;;6219322;28;20227;-86
2023/10/13 10:23:48;;;;;;;8.50;3.17;;;18.10;89.20;;;;;;6171987;28;20065;-86
2023/10/13 10:26:51;;;;;;;12.90;4.10;;;18.20;88.70;;;;;;6219106;28;20046;-86
2023/10/13 10:29:53;;;;;;;13.45;3.88;;;18.20;88.30;;;;;;6191216;28;20058;-86
2023/10/13 10:32:59;;;;;;;10.60;3.70;;;18.30;88.40;;;;;;6219869;28;20567;-85
2023/10/13 10:36:01;;;;;;;12.20;3.58;;;18.30;88.40;;;;;;6169697;28;20047;-84
2023/10/13 10:39:06;;;;;;;10.10;3.70;;;18.40;88.90;;;;;;6217330;28;20414;-86
2023/10/13 10:42:10;;;;;;;11.93;4.07;;;18.40;87.50;;;;;;6194195;28;20121;-85
2023/10/13 10:45:12;;;;;;;14.90;4.00;;;18.50;87.30;;;;;;6213626;28;20466;-86
2023/10/13 10:48:17;;;;;;;12.57;4.30;;;18.60;85.60;;;;;;6194152;28;20050;-84
2023/10/13 10:51:22;;;;;;;9.43;3.45;;;18.60;86.00;;;;;;6219448;28;20061;-86
2023/10/13 10:54:34;;;;;;;13.50;3.85;;;18.70;83.80;;;;;;6171885;28;20186;-83
2023/10/13 10:57:42;;;;;;;8.65;3.95;;;18.70;85.20;;;;;;6213131;28;20056;-83
2023/10/13 11:00:50;;;;;;;13.73;3.58;;;18.80;84.80;;;;;;6193078;28;20316;-84
2023/10/13 11:03:52;;;;;;;14.35;3.80;;;18.90;83.80;;;;;;6217377;28;20057;-86
2023/10/13 11:06:57;;;;;;;13.57;3.78;;;19.50;83.20;;;;;;6194602;28;20065;-86
2023/10/13 11:10:07;;;;;;;12.27;3.80;;;20.00;79.00;;;;;;6219004;28;20141;-85
2023/10/13 11:13:13;;;;;;;13.75;3.60;;;20.40;77.40;;;;;;6194298;28;20069;-86
2023/10/13 11:16:15;;;;;;;11.32;3.53;;;20.80;70.70;;;;;;6219306;28;20091;-87
2023/10/13 11:19:28;;;;;;;16.55;3.78;;;21.10;66.40;;;;;;6170884;28;20055;-87
2023/10/13 11:22:32;;;;;;;9.35;3.65;;;21.10;65.50;;;;;;6223334;28;20053;-87
2023/10/13 11:25:37;;;;;;;13.73;3.78;;;21.10;62.90;;;;;;6195038;28;20058;-87
2023/10/13 11:28:39;;;;;;;12.73;3.90;;;21.50;66.20;;;;;;6206723;28;20058;-84
2023/10/13 11:31:41;;;;;;;19.13;4.28;;;22.10;54.70;;;;;;6221114;28;20057;-83
2023/10/13 11:34:43;;;;;;;18.30;4.25;;;22.30;47.40;;;;;;6197370;28;20054;-83
2023/10/13 11:37:54;;;;;;;10.40;3.60;;;22.30;49.80;;;;;;6222315;28;20053;-84
2023/10/13 11:44:23;;;;;;;12.52;3.33;;;22.40;52.00;;;;;;6197829;28;20150;-84
2023/10/13 11:47:47;;;;;;;11.77;3.95;;;22.30;43.30;;;;;;6188745;28;20054;-82
2023/10/13 11:50:50;;;;;;;13.65;3.70;;;23.10;43.80;;;;;;6174002;28;20058;-83
2023/10/13 11:53:51;;;;;;;11.77;2.90;;;23.00;25.40;;;;;;6221555;28;20068;-83
2023/10/13 11:56:58;;;;;;;15.40;4.00;;;23.10;21.30;;;;;;6197827;28;20573;-82
2023/10/13 12:00:16;;;;;;;15.65;4.15;;;22.90;28.00;;;;;;6169582;28;20066;-84
2023/10/13 12:12:58;;;;;;;10.75;2.83;;;22.40;20.20;;;;;;6216162;28;20046;-82
2023/10/13 12:16:08;;;;;;;12.30;3.20;;;22.20;15.10;;;;;;6196254;28;20589;-85
2023/10/13 12:19:11;;;;;;;8.98;2.70;;;21.90;24.30;;;;;;6174136;28;20054;-81
2023/10/13 12:22:22;;;;;;;13.30;2.90;;;21.60;22.70;;;;;;6236198;28;20493;-84
2023/10/13 12:25:25;;;;;;;17.38;3.60;;;21.30;25.40;;;;;;6173051;28;20137;-85
2023/10/13 12:28:28;;;;;;;10.02;2.80;;;21.10;28.80;;;;;;6209170;28;20050;-86
2023/10/13 12:31:32;;;;;;;14.68;2.97;;;21.00;26.70;;;;;;6220322;28;20069;-82
2023/10/13 12:35:27;;;;;;;14.52;2.78;;;21.20;30.60;;;;;;6196271;28;20052;-86
2023/10/13 12:38:05;;;;;;;14.93;3.38;;;21.30;26.20;;;;;;6178079;28;20066;-87
2023/10/13 12:54:38;;;;;;;17.23;3.00;;;21.10;23.10;;;;;;6173193;28;20055;-83
2023/10/13 12:57:43;;;;;;;12.98;2.65;;;20.90;24.20;;;;;;6230890;28;20050;-85
2023/10/13 13:00:48;;;;;;;12.40;3.25;;;20.70;22.80;;;;;;6196105;28;20502;-84
2023/10/13 13:03:50;;;;;;;14.13;2.50;;;20.60;26.20;;;;;;6187529;28;20050;-84
2023/10/13 13:06:53;;;;;;;14.30;2.85;;;20.50;27.70;;;;;;6235249;28;20494;-83
2023/10/13 13:09:58;;;;;;;13.25;2.85;;;20.40;24.10;;;;;;6195210;28;20430;-83
2023/10/13 13:13:00;;;;;;;12.40;2.75;;;20.70;32.50;;;;;;6212102;28;20046;-84
2023/10/13 13:16:03;;;;;;;10.70;2.13;;;21.90;15.00;;;;;;6195015;28;20055;-85
2023/10/13 13:19:14;;;;;;;11.70;2.28;;;22.10;11.30;;;;;;6187216;28;20485;-84
2023/10/13 13:22:17;;;;;;;11.15;2.38;;;21.90;13.10;;;;;;6234791;28;20064;-83
2023/10/13 13:25:25;;;;;;;16.77;2.55;;;21.60;7.30;;;;;;6194895;28;20061;-84
2023/10/13 13:28:28;;;;;;;10.18;2.30;;;21.50;9.50;;;;;;6183492;28;20058;-83
2023/10/13 13:31:31;;;;;;;10.95;2.10;;;21.60;8.20;;;;;;6195789;28;20418;-84
2023/10/13 13:34:33;;;;;;;9.73;1.90;;;21.50;5.80;;;;;;6218582;28;20105;-83
2023/10/13 13:37:37;;;;;;;8.40;2.15;;;21.80;1.60;;;;;;6195409;28;20054;-85
2023/10/13 13:40:40;;;;;;;8.68;1.90;;;22.50;1.00;;;;;;6218276;28;20049;-82
2023/10/13 13:43:50;;;;;;;7.35;1.70;;;22.70;1.00;;;;;;6196344;28;20050;-85
2023/10/13 13:46:53;;;;;;;8.35;1.85;;;23.40;1.00;;;;;;6193959;28;20081;-84
2023/10/13 13:49:55;;;;;;;10.43;2.10;;;23.30;1.00;;;;;;6219499;28;20057;-85
2023/10/13 13:52:57;;;;;;;7.05;1.80;;;22.50;1.00;;;;;;6194269;28;20047;-83
2023/10/13 13:55:59;;;;;;;8.32;1.85;;;22.00;1.00;;;;;;6217639;28;20462;-83
2023/10/13 13:59:07;;;;;;;9.90;2.35;;;21.60;1.00;;;;;;6203744;28;20064;-82
2023/10/13 14:02:19;;;;;;;11.53;2.70;;;21.40;1.00;;;;;;6169821;28;20442;-83
2023/10/13 14:05:21;;;;;;;33.17;12.13;;;21.30;1.00;;;;;;6185554;28;20296;-82
2023/10/13 14:08:23;;;;;;;23.92;7.10;;;21.30;8.80;;;;;;6233091;28;20445;-82
2023/10/13 14:14:47;;;;;;;13.20;2.83;;;21.70;1.00;;;;;;6170342;28;20102;-85
2023/10/13 14:17:49;;;;;;;17.30;2.63;;;21.30;3.20;;;;;;6204098;28;20244;-84
2023/10/13 14:20:51;;;;;;;12.13;2.95;;;21.10;4.70;;;;;;6216314;28;20061;-82
2023/10/13 14:23:56;;;;;;;16.83;2.70;;;21.00;7.50;;;;;;6194412;28;20058;-87
2023/10/13 14:27:17;;;;;;;8.57;2.38;;;20.90;12.20;;;;;;6218093;28;20068;-84
2023/10/13 14:30:19;;;;;;;13.10;2.72;;;20.90;8.50;;;;;;6165840;28;20570;-84
2023/10/13 14:33:25;;;;;;;12.23;1.85;;;20.70;8.30;;;;;;6217206;28;20050;-84
2023/10/13 14:36:28;;;;;;;14.02;3.78;;;20.70;4.60;;;;;;6171108;28;20059;-83
2023/10/13 14:39:30;;;;;;;16.92;4.63;;;20.70;7.00;;;;;;6216341;28;20188;-82
2023/10/13 14:42:35;;;;;;;16.05;3.53;;;20.80;11.00;;;;;;6194305;28;20058;-81
2023/10/13 14:45:37;;;;;;;14.38;4.93;;;20.90;4.60;;;;;;6198265;28;20141;-83
2023/10/13 14:48:39;;;;;;;8.68;2.00;;;21.00;2.70;;;;;;6218666;28;20105;-81
2023/10/13 14:51:40;;;;;;;10.75;2.15;;;21.20;1.00;;;;;;6195856;28;20060;-84
2023/10/13 14:54:42;;;;;;;10.85;2.95;;;21.20;1.00;;;;;;6217671;28;20054;-84
2023/10/13 14:57:44;;;;;;;18.02;5.63;;;21.20;1.00;;;;;;6196561;28;20049;-82
2023/10/13 15:00:46;;;;;;;20.27;5.13;;;21.10;1.40;;;;;;6218960;28;20069;-85
2023/10/13 15:03:47;;;;;;;12.02;1.85;;;20.90;1.00;;;;;;6172395;28;20102;-82
2023/10/13 15:06:50;;;;;;;13.02;2.47;;;20.80;1.00;;;;;;6237688;28;20061;-84
2023/10/13 15:09:51;;;;;;;14.25;2.10;;;20.70;1.00;;;;;;6199364;28;20054;-82
2023/10/13 15:12:53;;;;;;;9.30;1.70;;;20.60;2.60;;;;;;6214699;28;20046;-84
2023/10/13 15:15:55;;;;;;;15.50;2.05;;;20.30;2.80;;;;;;6197787;28;20498;-83
2023/10/13 15:18:58;;;;;;;14.77;2.22;;;20.40;3.60;;;;;;6175419;28;20066;-83
2023/10/13 15:21:59;;;;;;;14.63;2.80;;;20.30;4.30;;;;;;6223251;28;20054;-86
2023/10/13 15:25:09;;;;;;;9.57;2.20;;;20.30;5.10;;;;;;6198702;28;20049;-83
2023/10/13 15:28:11;;;;;;;16.90;2.10;;;20.20;6.40;;;;;;6183548;28;20477;-83
2023/10/13 15:31:22;;;;;;;10.50;2.20;;;20.20;10.90;;;;;;6223639;28;20093;-85
2023/10/13 15:34:26;;;;;;;16.65;2.20;;;20.10;12.30;;;;;;6174830;28;20134;-82
2023/10/13 15:37:28;;;;;;;9.73;1.92;;;20.10;10.30;;;;;;6222553;28;20050;-82
2023/10/13 15:40:30;;;;;;;10.23;1.98;;;20.10;12.30;;;;;;6198776;28;20542;-83
2023/10/13 15:43:31;;;;;;;8.68;1.92;;;20.00;11.90;;;;;;6203835;28;20401;-83
2023/10/13 15:46:35;;;;;;;14.60;1.55;;;19.90;13.00;;;;;;6172869;28;20526;-84
2023/10/13 15:49:57;;;;;;;10.38;1.88;;;20.00;10.60;;;;;;6186207;28;20423;-82
2023/10/13 15:52:59;;;;;;;12.13;1.67;;;20.00;10.20;;;;;;6236363;28;20058;-83
2023/10/13 15:56:00;;;;;;;10.43;1.60;;;20.00;11.70;;;;;;6198201;28;20054;-81
2023/10/13 15:59:02;;;;;;;11.27;2.35;;;19.90;13.50;;;;;;6204370;28;20501;-83
2023/10/13 16:02:07;;;;;;;10.55;1.55;;;19.80;14.20;;;;;;6220789;28;20053;-83
2023/10/13 16:05:09;;;;;;;6.32;1.08;;;19.60;15.60;;;;;;6196497;28;20430;-83
2023/10/13 16:08:11;;;;;;;7.50;1.30;;;19.60;12.80;;;;;;6220550;28;20053;-82
2023/10/13 16:11:13;;;;;;;9.70;1.27;;;19.50;13.20;;;;;;6196147;28;20090;-81
2023/10/13 16:14:18;;;;;;;6.30;1.17;;;19.30;15.70;;;;;;6203834;28;20054;-83
2023/10/13 16:17:23;;;;;;;9.00;1.50;;;19.20;16.10;;;;;;6172308;28;20067;-82
2023/10/13 16:20:25;;;;;;;10.85;1.48;;;19.20;16.70;;;;;;6219963;28;20160;-81
2023/10/13 16:23:27;;;;;;;15.02;1.60;;;19.20;19.40;;;;;;6197220;28;20403;-82
2023/10/13 16:26:30;;;;;;;7.45;1.38;;;19.10;18.80;;;;;;6219621;28;20057;-80
2023/10/13 16:29:32;;;;;;;9.27;1.48;;;19.10;20.00;;;;;;6192266;28;20116;-81
2023/10/13 16:32:34;;;;;;;8.85;1.30;;;19.10;20.40;;;;;;6219361;28;20062;-81
2023/10/13 16:35:36;;;;;;;13.93;2.05;;;19.00;19.40;;;;;;6195736;28;20514;-82
2023/10/13 16:38:38;;;;;;;12.88;1.52;;;19.00;20.20;;;;;;6219298;28;20180;-83
2023/10/13 16:41:41;;;;;;;10.00;1.50;;;19.00;21.60;;;;;;6196290;28;20175;-82
2023/10/13 16:44:44;;;;;;;12.35;1.67;;;19.00;22.10;;;;;;6214965;28;20470;-81
2023/10/13 16:47:45;;;;;;;8.57;1.45;;;18.90;21.80;;;;;;6197198;28;20057;-81
2023/10/13 16:50:47;;;;;;;8.80;1.98;;;18.90;23.00;;;;;;6220288;28;20109;-80
2023/10/13 16:53:52;;;;;;;9.98;1.63;;;18.80;25.40;;;;;;6196662;28;20054;-80
2023/10/13 16:56:55;;;;;;;9.70;1.65;;;18.90;24.50;;;;;;6220093;28;20049;-81
2023/10/13 16:59:57;;;;;;;9.55;1.80;;;18.80;24.60;;;;;;6194461;28;20057;-81
2023/10/13 17:02:59;;;;;;;11.13;1.90;;;18.80;26.90;;;;;;6218945;28;20061;-80
2023/10/13 17:06:01;;;;;;;10.13;1.58;;;18.80;29.40;;;;;;6196968;28;20058;-80
2023/10/13 17:09:04;;;;;;;10.15;1.95;;;18.60;41.20;;;;;;6218835;28;20061;-81
2023/10/13 17:12:05;;;;;;;7.80;1.80;;;18.20;49.70;;;;;;6195279;28;20046;-81
2023/10/13 17:15:21;;;;;;;7.63;1.70;;;17.90;59.20;;;;;;6216560;28;20058;-81
2023/10/13 17:18:23;;;;;;;8.80;1.48;;;17.70;68.10;;;;;;6186764;28;20069;-81
2023/10/13 17:21:25;;;;;;;11.38;1.88;;;17.40;74.00;;;;;;6234327;28;20050;-81
2023/10/13 17:24:27;;;;;;;9.40;1.65;;;17.20;77.30;;;;;;6194670;28;20058;-82
2023/10/13 17:27:36;;;;;;;9.73;1.73;;;17.10;79.60;;;;;;6215479;28;20053;-82
2023/10/13 17:30:39;;;;;;;7.05;1.20;;;17.10;79.90;;;;;;6194285;28;20058;-81
2023/10/13 17:33:41;;;;;;;6.93;1.30;;;17.00;79.80;;;;;;6171890;28;20082;-81
2023/10/13 17:36:42;;;;;;;9.70;1.33;;;17.00;79.10;;;;;;6233799;28;20054;-82
2023/10/13 17:39:44;;;;;;;8.45;1.50;;;17.00;78.10;;;;;;6196326;28;20521;-82
2023/10/13 17:42:49;;;;;;;8.35;1.50;;;17.00;78.10;;;;;;6212308;28;20050;-82
2023/10/13 17:45:51;;;;;;;7.80;1.42;;;17.00;77.40;;;;;;6171619;28;20077;-81
2023/10/13 17:48:55;;;;;;;4.82;1.33;;;17.00;77.10;;;;;;6193567;28;20232;-81
2023/10/13 17:51:57;;;;;;;7.38;1.35;;;17.10;77.20;;;;;;6219132;28;20054;-83
2023/10/13 17:55:00;;;;;;;8.23;1.50;;;17.10;77.30;;;;;;6195810;28;20132;-80
2023/10/13 17:58:02;;;;;;;7.95;2.00;;;17.00;77.20;;;;;;6208292;28;20057;-79
2023/10/13 18:01:03;;;;;;;7.10;1.50;;;17.00;78.80;;;;;;6195314;28;20525;-80
2023/10/13 18:04:09;;;;;;;5.55;1.95;;;17.00;79.10;;;;;;6217155;28;20050;-81
2023/10/13 18:07:16;;;;;;;9.20;1.65;;;16.90;79.90;;;;;;6171203;28;20050;-82
2023/10/13 18:10:18;;;;;;;6.72;1.48;;;16.90;80.70;;;;;;6218508;28;20049;-82
2023/10/13 18:13:19;;;;;;;4.95;1.15;;;16.90;81.30;;;;;;6201655;28;20049;-82
2023/10/13 18:16:21;;;;;;;4.82;1.20;;;16.90;81.40;;;;;;6195156;28;20089;-81
2023/10/13 18:19:27;;;;;;;2.40;0.68;;;16.80;79.50;;;;;;6218788;28;20339;-84
2023/10/13 18:22:29;;;;;;;1.40;0.60;;;15.70;68.80;;;;;;6194119;28;20057;-83
2023/10/13 18:25:31;;;;;;;1.95;0.55;;;15.00;73.80;;;;;;6218436;28;20065;-84
2023/10/13 18:28:33;;;;;;;2.92;0.70;;;14.60;78.10;;;;;;6200774;28;20054;-83
2023/10/13 18:31:35;;;;;;;2.70;0.70;;;14.30;80.80;;;;;;6193975;28;20069;-81
2023/10/13 18:34:37;;;;;;;2.80;0.80;;;14.30;82.30;;;;;;6217243;28;20053;-83
2023/10/13 18:37:39;;;;;;;3.10;0.90;;;14.10;82.40;;;;;;6196199;28;20054;-82
2023/10/13 18:40:41;;;;;;;2.40;0.90;;;14.00;83.20;;;;;;6225971;28;20072;-83
2023/10/13 18:43:42;;;;;;;1.67;0.75;;;13.90;82.90;;;;;;6205651;28;20056;-84
2023/10/13 18:46:44;;;;;;;3.30;0.98;;;13.80;83.00;;;;;;6202544;28;20050;-82
2023/10/13 18:49:46;;;;;;;2.25;1.00;;;13.70;83.80;;;;;;6225858;28;20064;-83
2023/10/13 18:52:47;;;;;;;2.60;1.10;;;13.70;84.40;;;;;;6202825;28;20054;-83
2023/10/13 18:55:49;;;;;;;2.50;0.93;;;13.60;83.90;;;;;;6229498;28;20053;-83
2023/10/13 18:58:54;;;;;;;3.15;1.10;;;13.50;83.00;;;;;;6214503;28;20056;-83